< < Back
Terminal Aerodrome Forecast


Current Version              Previous Versions:   1  2  3  4  5  6  7  8  9  

Terminal Aerodrome Forecast

818
FTUS42 KCHS 301100
TAFCHS
TAF
KCHS 301125Z 3012/0112 02008KT P6SM BKN025
     FM301600 03007KT P6SM SCT035
     FM010000 VRB03KT P6SM SKC
     FM010900 00000KT 5SM BR SKC=



Latest METAR

720
SAUS80 KWBC 301800 CCB
MTRCHS
METAR KCHS 301756Z VRB04KT 10SM FEW035 27/17 A2987 RMK AO2 SLP112
T02720167 10272 20189 58013


USA.gov is the U.S. government's official web portal to all federal, state and local government web resources and services.